TAP1105 LEZL-LPPT
Flight info
| Callsign | TAP1105 |
|---|---|
| Flight time | 0h 39m |
| Altitude | 34000 |
| Route | N0455F340 ONUBA DCT NAPES DCT OSLEP DCT MINTA DCT VATZI |
| Aircraft | A320/M-SDE3FGHIJ1RWXYZ/LB1 |
Departure
| Time | 2026-04-14 21:07 |
|---|---|
| Airport | Seville Airport (LEZL) |
Arrival
| Time | 2026-04-14 21:46 |
|---|---|
| Airport | Lisbon Humberto Delgado Airport (LPPT) |
| Time | Latitude | Longitude | Altitude | Speed | Heading |
|---|---|---|---|---|---|
| 2026-04-14 20:34 | 37.42340 | -5.89790 | 94 ft | 0 kts | 314° |
| 2026-04-14 20:57 | 37.42332 | -5.89778 | 94 ft | 4 kts | 303° |
| 2026-04-14 20:57 | 37.42323 | -5.89748 | 94 ft | 4 kts | 271° |
| 2026-04-14 20:57 | 37.42327 | -5.89716 | 94 ft | 4 kts | 243° |
| 2026-04-14 20:57 | 37.42337 | -5.89697 | 94 ft | 0 kts | 225° |
| 2026-04-14 20:59 | 37.42332 | -5.89704 | 94 ft | 6 kts | 225° |
| 2026-04-14 20:59 | 37.42293 | -5.89739 | 94 ft | 7 kts | 210° |
| 2026-04-14 21:00 | 37.42258 | -5.89768 | 94 ft | 6 kts | 218° |
| 2026-04-14 21:00 | 37.42232 | -5.89798 | 94 ft | 5 kts | 224° |
| 2026-04-14 21:00 | 37.42212 | -5.89823 | 96 ft | 4 kts | 224° |
| 2026-04-14 21:00 | 37.42197 | -5.89843 | 94 ft | 3 kts | 225° |
| 2026-04-14 21:01 | 37.42185 | -5.89858 | 94 ft | 2 kts | 226° |
| 2026-04-14 21:01 | 37.42178 | -5.89868 | 94 ft | 1 kts | 227° |
| 2026-04-14 21:01 | 37.42173 | -5.89874 | 96 ft | 3 kts | 226° |
| 2026-04-14 21:01 | 37.42140 | -5.89915 | 94 ft | 7 kts | 221° |
| 2026-04-14 21:02 | 37.42103 | -5.89932 | 95 ft | 5 kts | 182° |
| 2026-04-14 21:02 | 37.42074 | -5.89921 | 94 ft | 4 kts | 158° |
| 2026-04-14 21:02 | 37.42045 | -5.89906 | 95 ft | 9 kts | 157° |
| 2026-04-14 21:02 | 37.41992 | -5.89872 | 97 ft | 7 kts | 135° |
| 2026-04-14 21:03 | 37.41981 | -5.89822 | 96 ft | 5 kts | 92° |
| 2026-04-14 21:03 | 37.41981 | -5.89769 | 96 ft | 9 kts | 89° |
| 2026-04-14 21:03 | 37.41981 | -5.89660 | 97 ft | 16 kts | 89° |
| 2026-04-14 21:03 | 37.41982 | -5.89488 | 98 ft | 23 kts | 90° |
| 2026-04-14 21:04 | 37.41983 | -5.89279 | 100 ft | 25 kts | 90° |
| 2026-04-14 21:04 | 37.41984 | -5.89055 | 101 ft | 26 kts | 90° |
| 2026-04-14 21:04 | 37.41984 | -5.88819 | 102 ft | 28 kts | 89° |
| 2026-04-14 21:04 | 37.41986 | -5.88571 | 104 ft | 29 kts | 89° |
| 2026-04-14 21:05 | 37.41986 | -5.88311 | 105 ft | 30 kts | 89° |
| 2026-04-14 21:05 | 37.41987 | -5.88044 | 107 ft | 31 kts | 90° |
| 2026-04-14 21:05 | 37.41987 | -5.87777 | 108 ft | 30 kts | 89° |
| 2026-04-14 21:05 | 37.41988 | -5.87584 | 109 ft | 21 kts | 92° |
| 2026-04-14 21:06 | 37.41926 | -5.87439 | 113 ft | 18 kts | 152° |
| 2026-04-14 21:06 | 37.41824 | -5.87462 | 115 ft | 15 kts | 226° |
| 2026-04-14 21:06 | 37.41801 | -5.87680 | 113 ft | 50 kts | 270° |
| 2026-04-14 21:06 | 37.41796 | -5.88435 | 107 ft | 119 kts | 269° |
| 2026-04-14 21:07 | 37.41802 | -5.89688 | 180 ft | 164 kts | 271° |
| 2026-04-14 21:07 | 37.41858 | -5.91098 | 965 ft | 159 kts | 278° |
| 2026-04-14 21:07 | 37.42037 | -5.92488 | 1602 ft | 168 kts | 284° |
| 2026-04-14 21:07 | 37.42300 | -5.94023 | 2041 ft | 189 kts | 285° |
| 2026-04-14 21:08 | 37.42612 | -5.95741 | 2427 ft | 215 kts | 285° |
| 2026-04-14 21:08 | 37.42949 | -5.97684 | 2932 ft | 240 kts | 284° |
| 2026-04-14 21:08 | 37.43301 | -5.99835 | 3541 ft | 260 kts | 283° |
| 2026-04-14 21:08 | 37.43660 | -6.02096 | 4456 ft | 266 kts | 282° |
| 2026-04-14 21:09 | 37.43964 | -6.04387 | 5394 ft | 273 kts | 272° |
| 2026-04-14 21:09 | 37.43657 | -6.06758 | 6342 ft | 279 kts | 251° |
| 2026-04-14 21:09 | 37.43030 | -6.09074 | 7300 ft | 281 kts | 251° |
| 2026-04-14 21:09 | 37.42387 | -6.11416 | 8248 ft | 284 kts | 251° |
| 2026-04-14 21:10 | 37.41741 | -6.13776 | 9215 ft | 287 kts | 252° |
| 2026-04-14 21:10 | 37.41091 | -6.16166 | 10173 ft | 290 kts | 252° |
| 2026-04-14 21:10 | 37.40423 | -6.18628 | 10705 ft | 309 kts | 253° |
| 2026-04-14 21:10 | 37.39714 | -6.21249 | 11014 ft | 333 kts | 253° |
| 2026-04-14 21:11 | 37.38948 | -6.24085 | 11428 ft | 350 kts | 253° |
| 2026-04-14 21:11 | 37.38154 | -6.27007 | 12126 ft | 357 kts | 253° |
| 2026-04-14 21:11 | 37.37344 | -6.29980 | 12886 ft | 362 kts | 253° |
| 2026-04-14 21:11 | 37.36519 | -6.32990 | 13635 ft | 367 kts | 253° |
| 2026-04-14 21:12 | 37.35685 | -6.36039 | 14349 ft | 371 kts | 253° |
| 2026-04-14 21:12 | 37.34839 | -6.39129 | 15024 ft | 376 kts | 253° |
| 2026-04-14 21:12 | 37.33984 | -6.42251 | 15712 ft | 380 kts | 253° |
| 2026-04-14 21:12 | 37.33131 | -6.45359 | 16376 ft | 384 kts | 253° |
| 2026-04-14 21:13 | 37.32258 | -6.48545 | 17036 ft | 387 kts | 253° |
| 2026-04-14 21:13 | 37.31377 | -6.51758 | 17697 ft | 391 kts | 253° |
| 2026-04-14 21:13 | 37.30483 | -6.55002 | 18366 ft | 395 kts | 253° |
| 2026-04-14 21:14 | 37.28666 | -6.61572 | 19469 ft | 401 kts | 253° |
| 2026-04-14 21:14 | 37.27746 | -6.64894 | 20021 ft | 404 kts | 254° |
| 2026-04-14 21:14 | 37.26819 | -6.68241 | 20569 ft | 407 kts | 254° |
| 2026-04-14 21:14 | 37.25897 | -6.71567 | 21107 ft | 410 kts | 253° |
| 2026-04-14 21:15 | 37.24956 | -6.74960 | 21639 ft | 413 kts | 254° |
| 2026-04-14 21:15 | 37.24213 | -6.78439 | 22155 ft | 414 kts | 260° |
| 2026-04-14 21:15 | 37.23562 | -6.81970 | 22681 ft | 416 kts | 260° |
| 2026-04-14 21:15 | 37.22903 | -6.85519 | 23184 ft | 419 kts | 260° |
| 2026-04-14 21:16 | 37.22236 | -6.89085 | 23709 ft | 421 kts | 259° |
| 2026-04-14 21:16 | 37.21560 | -6.92677 | 24149 ft | 424 kts | 259° |
| 2026-04-14 21:16 | 37.20883 | -6.96286 | 24572 ft | 426 kts | 259° |
| 2026-04-14 21:16 | 37.20208 | -6.99866 | 24987 ft | 428 kts | 259° |
| 2026-04-14 21:17 | 37.19518 | -7.03508 | 25388 ft | 431 kts | 259° |
| 2026-04-14 21:17 | 37.18824 | -7.07173 | 25787 ft | 433 kts | 259° |
| 2026-04-14 21:17 | 37.18127 | -7.10854 | 26184 ft | 435 kts | 259° |
| 2026-04-14 21:17 | 37.17423 | -7.14550 | 26586 ft | 437 kts | 259° |
| 2026-04-14 21:18 | 37.16715 | -7.18266 | 26985 ft | 440 kts | 259° |
| 2026-04-14 21:18 | 37.16004 | -7.21999 | 27368 ft | 441 kts | 259° |
| 2026-04-14 21:18 | 37.15301 | -7.25700 | 27765 ft | 443 kts | 259° |
| 2026-04-14 21:18 | 37.14580 | -7.29462 | 28150 ft | 445 kts | 259° |
| 2026-04-14 21:19 | 37.13940 | -7.33260 | 28497 ft | 445 kts | 264° |
| 2026-04-14 21:19 | 37.13770 | -7.37123 | 28835 ft | 444 kts | 274° |
| 2026-04-14 21:19 | 37.14122 | -7.40963 | 29171 ft | 444 kts | 283° |
| 2026-04-14 21:19 | 37.14965 | -7.44677 | 29505 ft | 444 kts | 292° |
| 2026-04-14 21:20 | 37.16119 | -7.48268 | 29828 ft | 445 kts | 293° |
| 2026-04-14 21:20 | 37.17287 | -7.51867 | 30145 ft | 447 kts | 293° |
| 2026-04-14 21:20 | 37.18444 | -7.55439 | 30436 ft | 449 kts | 293° |
| 2026-04-14 21:20 | 37.19614 | -7.59063 | 30819 ft | 447 kts | 293° |
| 2026-04-14 21:21 | 37.20777 | -7.62678 | 31195 ft | 447 kts | 292° |
| 2026-04-14 21:21 | 37.21935 | -7.66289 | 31577 ft | 446 kts | 292° |
| 2026-04-14 21:21 | 37.23091 | -7.69890 | 31973 ft | 444 kts | 292° |
| 2026-04-14 21:21 | 37.24245 | -7.73480 | 32366 ft | 443 kts | 292° |
| 2026-04-14 21:22 | 37.25399 | -7.77060 | 32765 ft | 442 kts | 292° |
| 2026-04-14 21:22 | 37.26533 | -7.80580 | 33151 ft | 441 kts | 292° |
| 2026-04-14 21:22 | 37.27678 | -7.84145 | 33568 ft | 440 kts | 292° |
| 2026-04-14 21:22 | 37.28818 | -7.87702 | 33985 ft | 438 kts | 292° |
| 2026-04-14 21:23 | 37.29953 | -7.91252 | 34228 ft | 438 kts | 292° |
| 2026-04-14 21:23 | 37.31083 | -7.94791 | 34271 ft | 436 kts | 292° |
| 2026-04-14 21:23 | 37.33326 | -8.01843 | 34271 ft | 434 kts | 292° |
| 2026-04-14 21:24 | 37.35544 | -8.08837 | 34281 ft | 434 kts | 292° |
| 2026-04-14 21:24 | 37.37776 | -8.15890 | 34282 ft | 434 kts | 292° |
| 2026-04-14 21:25 | 37.40010 | -8.22948 | 34285 ft | 435 kts | 292° |
| 2026-04-14 21:25 | 37.42220 | -8.29968 | 34284 ft | 434 kts | 292° |
| 2026-04-14 21:26 | 37.44441 | -8.37026 | 34151 ft | 435 kts | 291° |
| 2026-04-14 21:26 | 37.45556 | -8.40565 | 33884 ft | 435 kts | 291° |
| 2026-04-14 21:26 | 37.46668 | -8.44109 | 33619 ft | 436 kts | 291° |
| 2026-04-14 21:27 | 37.47779 | -8.47663 | 33148 ft | 437 kts | 291° |
| 2026-04-14 21:27 | 37.48898 | -8.51249 | 32042 ft | 443 kts | 291° |
| 2026-04-14 21:27 | 37.50032 | -8.54880 | 31024 ft | 448 kts | 291° |
| 2026-04-14 21:27 | 37.51182 | -8.58551 | 29851 ft | 453 kts | 291° |
| 2026-04-14 21:28 | 37.52325 | -8.62211 | 28669 ft | 457 kts | 291° |
| 2026-04-14 21:28 | 37.53488 | -8.65950 | 27694 ft | 457 kts | 292° |
| 2026-04-14 21:28 | 37.54631 | -8.69637 | 27055 ft | 448 kts | 292° |
| 2026-04-14 21:28 | 37.55758 | -8.73274 | 26296 ft | 443 kts | 291° |
| 2026-04-14 21:29 | 37.56871 | -8.76874 | 25568 ft | 438 kts | 291° |
| 2026-04-14 21:29 | 37.57897 | -8.80094 | 25125 ft | 429 kts | 295° |
| 2026-04-14 21:29 | 37.59414 | -8.83234 | 24997 ft | 411 kts | 308° |
| 2026-04-14 21:29 | 37.61363 | -8.85781 | 24739 ft | 399 kts | 320° |
| 2026-04-14 21:30 | 37.63625 | -8.87683 | 24215 ft | 396 kts | 332° |
| 2026-04-14 21:30 | 37.66190 | -8.88940 | 23576 ft | 396 kts | 341° |
| 2026-04-14 21:30 | 37.68801 | -8.89979 | 23027 ft | 391 kts | 341° |
| 2026-04-14 21:30 | 37.71387 | -8.91013 | 22457 ft | 387 kts | 341° |
| 2026-04-14 21:31 | 37.73926 | -8.92036 | 21776 ft | 379 kts | 341° |
| 2026-04-14 21:31 | 37.76428 | -8.93054 | 21176 ft | 377 kts | 341° |
| 2026-04-14 21:31 | 37.78915 | -8.94072 | 20593 ft | 375 kts | 341° |
| 2026-04-14 21:31 | 37.81393 | -8.95088 | 20133 ft | 372 kts | 341° |
| 2026-04-14 21:32 | 37.83809 | -8.96071 | 19502 ft | 366 kts | 341° |
| 2026-04-14 21:32 | 37.86212 | -8.97048 | 18918 ft | 360 kts | 341° |
| 2026-04-14 21:32 | 37.88588 | -8.98021 | 18337 ft | 357 kts | 341° |
| 2026-04-14 21:32 | 37.90939 | -8.98987 | 17769 ft | 354 kts | 341° |
| 2026-04-14 21:33 | 37.93278 | -8.99948 | 17235 ft | 353 kts | 341° |
| 2026-04-14 21:33 | 37.95614 | -9.00902 | 16693 ft | 352 kts | 341° |
| 2026-04-14 21:33 | 37.97945 | -9.01854 | 16156 ft | 351 kts | 341° |
| 2026-04-14 21:33 | 38.00260 | -9.02799 | 15694 ft | 349 kts | 341° |
| 2026-04-14 21:34 | 38.02532 | -9.03742 | 15262 ft | 346 kts | 341° |
| 2026-04-14 21:34 | 38.04798 | -9.04699 | 14747 ft | 340 kts | 340° |
| 2026-04-14 21:34 | 38.07025 | -9.05646 | 14065 ft | 335 kts | 340° |
| 2026-04-14 21:34 | 38.09229 | -9.06589 | 13523 ft | 333 kts | 340° |
| 2026-04-14 21:35 | 38.11420 | -9.07528 | 13003 ft | 332 kts | 340° |
| 2026-04-14 21:35 | 38.13611 | -9.08459 | 12517 ft | 332 kts | 340° |
| 2026-04-14 21:35 | 38.15796 | -9.09382 | 12020 ft | 330 kts | 340° |
| 2026-04-14 21:35 | 38.17969 | -9.10278 | 11546 ft | 328 kts | 343° |
| 2026-04-14 21:36 | 38.20158 | -9.10922 | 11078 ft | 326 kts | 346° |
| 2026-04-14 21:36 | 38.22363 | -9.11554 | 10683 ft | 320 kts | 346° |
| 2026-04-14 21:36 | 38.24454 | -9.12151 | 10529 ft | 296 kts | 345° |
| 2026-04-14 21:36 | 38.26424 | -9.12716 | 10202 ft | 286 kts | 346° |
| 2026-04-14 21:37 | 38.28357 | -9.13275 | 10081 ft | 284 kts | 345° |
| 2026-04-14 21:37 | 38.30273 | -9.13831 | 9909 ft | 283 kts | 346° |
| 2026-04-14 21:37 | 38.32213 | -9.14395 | 9334 ft | 288 kts | 345° |
| 2026-04-14 21:37 | 38.34132 | -9.14952 | 8863 ft | 289 kts | 346° |
| 2026-04-14 21:38 | 38.36067 | -9.15512 | 8562 ft | 282 kts | 345° |
| 2026-04-14 21:38 | 38.37957 | -9.16058 | 7933 ft | 276 kts | 345° |
| 2026-04-14 21:38 | 38.39825 | -9.16598 | 7243 ft | 274 kts | 346° |
| 2026-04-14 21:38 | 38.41673 | -9.17136 | 6545 ft | 272 kts | 346° |
| 2026-04-14 21:39 | 38.43504 | -9.17666 | 5939 ft | 266 kts | 346° |
| 2026-04-14 21:39 | 38.45229 | -9.18165 | 5813 ft | 243 kts | 346° |
| 2026-04-14 21:39 | 38.46838 | -9.18631 | 5714 ft | 231 kts | 346° |
| 2026-04-14 21:39 | 38.48372 | -9.19077 | 5613 ft | 221 kts | 346° |
| 2026-04-14 21:40 | 38.49842 | -9.19503 | 5523 ft | 219 kts | 346° |
| 2026-04-14 21:40 | 38.51327 | -9.19934 | 5427 ft | 219 kts | 346° |
| 2026-04-14 21:40 | 38.52808 | -9.20369 | 5331 ft | 219 kts | 345° |
| 2026-04-14 21:40 | 38.54228 | -9.21017 | 5131 ft | 217 kts | 336° |
| 2026-04-14 21:41 | 38.55625 | -9.21763 | 4902 ft | 215 kts | 336° |
| 2026-04-14 21:41 | 38.56984 | -9.22486 | 4734 ft | 210 kts | 336° |
| 2026-04-14 21:41 | 38.58353 | -9.23164 | 4376 ft | 215 kts | 345° |
| 2026-04-14 21:41 | 38.59868 | -9.23230 | 3935 ft | 220 kts | 11° |
| 2026-04-14 21:42 | 38.61289 | -9.22585 | 3630 ft | 214 kts | 21° |
| 2026-04-14 21:42 | 38.62625 | -9.21868 | 3347 ft | 208 kts | 20° |
| 2026-04-14 21:42 | 38.63939 | -9.21168 | 3072 ft | 202 kts | 21° |
| 2026-04-14 21:42 | 38.65210 | -9.20490 | 2821 ft | 192 kts | 20° |
| 2026-04-14 21:43 | 38.66414 | -9.19848 | 2554 ft | 184 kts | 21° |
| 2026-04-14 21:43 | 38.67582 | -9.19226 | 2303 ft | 180 kts | 20° |
| 2026-04-14 21:43 | 38.68722 | -9.18618 | 2075 ft | 172 kts | 19° |
| 2026-04-14 21:43 | 38.69789 | -9.18048 | 1836 ft | 161 kts | 19° |
| 2026-04-14 21:44 | 38.70804 | -9.17506 | 1625 ft | 152 kts | 19° |
| 2026-04-14 21:44 | 38.71725 | -9.17014 | 1423 ft | 138 kts | 19° |
| 2026-04-14 21:44 | 38.72589 | -9.16553 | 1235 ft | 132 kts | 18° |
| 2026-04-14 21:44 | 38.73414 | -9.16115 | 1070 ft | 129 kts | 19° |
| 2026-04-14 21:45 | 38.74247 | -9.15666 | 849 ft | 130 kts | 20° |
| 2026-04-14 21:45 | 38.75079 | -9.15216 | 679 ft | 130 kts | 19° |
| 2026-04-14 21:45 | 38.75930 | -9.14762 | 536 ft | 133 kts | 19° |
| 2026-04-14 21:45 | 38.76782 | -9.14310 | 365 ft | 132 kts | 18° |
| 2026-04-14 21:46 | 38.77486 | -9.13941 | 362 ft | 72 kts | 22° |
| 2026-04-14 21:46 | 38.77694 | -9.13828 | 364 ft | 40 kts | 23° |
| 2026-04-14 21:46 | 38.78019 | -9.13653 | 367 ft | 31 kts | 22° |
| 2026-04-14 21:46 | 38.78079 | -9.13580 | 368 ft | 7 kts | 144° |
| 2026-04-14 21:47 | 38.78023 | -9.13566 | 366 ft | 9 kts | 169° |
| 2026-04-14 21:47 | 38.77967 | -9.13550 | 361 ft | 6 kts | 168° |
| 2026-04-14 21:47 | 38.77937 | -9.13542 | 360 ft | 7 kts | 168° |
| 2026-04-14 21:47 | 38.77879 | -9.13526 | 365 ft | 10 kts | 168° |
| 2026-04-14 21:48 | 38.77772 | -9.13497 | 356 ft | 14 kts | 168° |
| 2026-04-14 21:48 | 38.77706 | -9.13480 | 352 ft | 15 kts | 169° |
| 2026-04-14 21:48 | 38.77596 | -9.13450 | 345 ft | 17 kts | 168° |
| 2026-04-14 21:48 | 38.77479 | -9.13418 | 343 ft | 17 kts | 168° |
| 2026-04-14 21:49 | 38.77363 | -9.13387 | 350 ft | 17 kts | 168° |
| 2026-04-14 21:49 | 38.77218 | -9.13350 | 349 ft | 15 kts | 168° |
| 2026-04-14 21:49 | 38.77148 | -9.13331 | 344 ft | 15 kts | 168° |
| 2026-04-14 21:49 | 38.77051 | -9.13304 | 341 ft | 14 kts | 168° |
| 2026-04-14 21:50 | 38.76961 | -9.13281 | 340 ft | 13 kts | 168° |
| 2026-04-14 21:50 | 38.76871 | -9.13257 | 337 ft | 13 kts | 168° |
| 2026-04-14 21:50 | 38.76788 | -9.13243 | 339 ft | 11 kts | 195° |
| 2026-04-14 21:50 | 38.76756 | -9.13320 | 349 ft | 10 kts | 258° |
| 2026-04-14 21:51 | 38.76726 | -9.13401 | 357 ft | 10 kts | 220° |
| 2026-04-14 21:51 | 38.76644 | -9.13471 | 353 ft | 11 kts | 208° |
| 2026-04-14 21:51 | 38.76594 | -9.13473 | 346 ft | 11 kts | 165° |
| 2026-04-14 21:51 | 38.76525 | -9.13445 | 345 ft | 8 kts | 150° |
| 2026-04-14 21:52 | 38.76528 | -9.13387 | 348 ft | 4 kts | 73° |
| 2026-04-14 21:52 | 38.76529 | -9.13383 | 345 ft | 0 kts | 73° |